Current Weather

Tamale

Tamale, Ghana (DGLE)

Report from: Monday, March 4, 2024 1:00 PM UTC
Current time: Tuesday, March 5, 2024 1:01 AM UTC

Nearby weather – Weather history – Daily summaries
Weather forecast

Temperature38.0°C (100.4°F)
Heat index42.4°C (108.2°F)
Dew point21.0°C (69.8°F)
Winds 5 kts (2.6 m/s, 5.8 mph) West (270°)
Clouds Sky clear
Altimeter29.77 in.Hg (1008 mB)
Relative humidity38 %
Density altitude3,105 ft. (946 m)
Remarks Ceiling and visibility OK
No significant changes expected in the next two hours
Flight conditions Visual Meteorological Conditions
Raw dataDGLE 041300Z 27005KT CAVOK 38/21 Q1008 NOSIG
An error has occurred. This application may no longer respond until reloaded. Reload 🗙